createdAt,value
2019-05-28T00:00:24.625Z,13.30
2019-05-28T00:02:55.136Z,13.30
2019-05-28T00:05:25.599Z,13.40
2019-05-28T00:07:56.039Z,13.40
2019-05-28T00:10:26.432Z,13.40
2019-05-28T00:12:56.865Z,13.40
2019-05-28T00:15:27.326Z,13.40
2019-05-28T00:17:57.756Z,13.50
2019-05-28T00:20:28.153Z,13.50
2019-05-28T00:22:58.598Z,13.50
2019-05-28T00:25:29.463Z,13.60
2019-05-28T00:28:00.098Z,13.60
2019-05-28T00:30:30.496Z,13.70
2019-05-28T00:33:01.007Z,13.70
2019-05-28T00:35:31.404Z,13.70
2019-05-28T00:38:01.904Z,13.70
2019-05-28T00:40:32.295Z,13.70
2019-05-28T00:43:02.803Z,13.70
2019-05-28T00:45:33.313Z,13.60
2019-05-28T00:48:03.827Z,13.60
2019-05-28T00:50:34.218Z,13.60
2019-05-28T00:53:04.733Z,13.60
2019-05-28T00:55:36.167Z,13.80
2019-05-28T00:58:07.238Z,13.90
2019-05-28T01:00:50.057Z,14.00
2019-05-28T01:03:20.629Z,14.10
2019-05-28T01:05:51.096Z,14.20
2019-05-28T01:08:21.537Z,14.30
2019-05-28T01:10:51.928Z,14.30
2019-05-28T01:13:22.361Z,14.40
2019-05-28T01:15:52.774Z,14.40
2019-05-28T01:18:23.289Z,14.30
2019-05-28T01:20:53.755Z,14.30
2019-05-28T01:23:25.243Z,14.30
2019-05-28T01:25:56.627Z,14.30
2019-05-28T01:28:27.129Z,14.40
2019-05-28T01:31:00.630Z,14.40
2019-05-28T01:33:29.648Z,14.40
2019-05-28T01:36:00.066Z,14.50
2019-05-28T01:38:30.577Z,14.40
2019-05-28T01:41:00.974Z,14.40
2019-05-28T01:43:31.409Z,14.40
2019-05-28T01:46:01.909Z,14.30
2019-05-28T01:48:32.342Z,14.40
2019-05-28T01:51:02.740Z,14.40
2019-05-28T01:53:33.184Z,14.40
2019-05-28T01:56:03.650Z,14.40
2019-05-28T01:58:34.088Z,14.40
2019-05-28T02:01:12.764Z,14.40
2019-05-28T02:03:36.691Z,14.40
2019-05-28T02:06:07.085Z,14.50
2019-05-28T02:08:37.526Z,14.50
2019-05-28T02:11:07.913Z,14.60
2019-05-28T02:13:38.426Z,14.60
2019-05-28T02:16:08.814Z,14.50
2019-05-28T02:18:39.252Z,14.50
2019-05-28T02:21:09.651Z,14.50
2019-05-28T02:23:40.089Z,14.60
2019-05-28T02:26:10.486Z,14.60
2019-05-28T02:28:40.994Z,14.60
2019-05-28T02:31:25.003Z,14.70
2019-05-28T02:33:43.520Z,14.70
2019-05-28T02:36:13.917Z,14.70
2019-05-28T02:38:44.343Z,14.80
2019-05-28T02:41:14.736Z,14.80
2019-05-28T02:43:45.171Z,14.80
2019-05-28T02:46:15.609Z,14.80
2019-05-28T02:48:46.056Z,14.90
2019-05-28T02:51:17.305Z,14.90
2019-05-28T02:53:47.812Z,14.90
2019-05-28T02:56:19.365Z,14.90
2019-05-28T02:58:51.033Z,14.90
2019-05-28T03:01:22.639Z,14.90
2019-05-28T03:03:56.979Z,14.90
2019-05-28T03:06:28.990Z,14.90
2019-05-28T03:09:01.036Z,14.90
2019-05-28T03:11:31.431Z,15.00
2019-05-28T03:14:02.036Z,14.90
2019-05-28T03:16:37.121Z,14.90
2019-05-28T03:19:08.500Z,14.90
2019-05-28T03:21:39.735Z,14.80
2019-05-28T03:24:12.125Z,14.80
2019-05-28T03:26:42.529Z,14.80
2019-05-28T03:29:12.961Z,14.80
2019-05-28T03:32:02.775Z,14.80
2019-05-28T03:34:15.598Z,14.80
2019-05-28T03:36:47.771Z,14.90
2019-05-28T03:39:18.280Z,14.90
2019-05-28T03:41:48.989Z,14.80
2019-05-28T03:44:19.381Z,14.80
2019-05-28T03:46:49.871Z,14.90
2019-05-28T03:49:21.913Z,14.90
2019-05-28T03:51:52.349Z,14.90
2019-05-28T03:54:22.820Z,14.90
2019-05-28T03:56:55.001Z,14.90
2019-05-28T03:59:25.435Z,15.00
2019-05-28T04:01:55.912Z,15.00
2019-05-28T04:04:26.319Z,15.00
2019-05-28T04:06:56.958Z,15.10
2019-05-28T04:09:27.375Z,15.10
2019-05-28T04:11:57.883Z,15.10
2019-05-28T04:14:28.268Z,15.10
2019-05-28T04:16:58.785Z,15.10
2019-05-28T04:19:29.181Z,15.10
2019-05-28T04:21:59.623Z,15.20
2019-05-28T04:24:30.025Z,15.30
2019-05-28T04:27:01.522Z,15.30
2019-05-28T04:29:32.021Z,15.30
2019-05-28T04:32:02.498Z,15.40
2019-05-28T04:34:32.932Z,15.40
2019-05-28T04:37:03.370Z,15.50
2019-05-28T04:39:35.456Z,15.50
2019-05-28T04:42:06.060Z,15.60
2019-05-28T04:44:36.453Z,15.70
2019-05-28T04:47:08.786Z,15.80
2019-05-28T04:49:38.985Z,15.90
2019-05-28T04:52:09.497Z,15.90
2019-05-28T04:54:39.919Z,16.00
2019-05-28T04:57:10.483Z,16.10
2019-05-28T04:59:40.892Z,16.10
2019-05-28T05:02:11.406Z,16.10
2019-05-28T05:04:42.915Z,16.20
2019-05-28T05:07:13.352Z,16.20
2019-05-28T05:09:44.165Z,16.20
2019-05-28T05:12:14.607Z,16.20
2019-05-28T05:14:45.004Z,16.30
2019-05-28T05:17:15.449Z,16.30
2019-05-28T05:19:45.841Z,16.40
2019-05-28T05:22:18.149Z,16.40
2019-05-28T05:24:48.545Z,16.40
2019-05-28T05:27:19.379Z,16.50
2019-05-28T05:29:49.776Z,16.50
2019-05-28T05:32:20.226Z,16.40
2019-05-28T05:34:50.689Z,16.40
2019-05-28T05:37:21.141Z,16.50
2019-05-28T05:39:51.543Z,16.40
2019-05-28T05:42:22.064Z,16.40
2019-05-28T05:44:52.464Z,16.50
2019-05-28T05:47:23.002Z,16.50
2019-05-28T05:49:53.448Z,16.60
2019-05-28T05:52:23.891Z,16.60
2019-05-28T05:54:54.298Z,16.60
2019-05-28T05:57:24.757Z,16.60
2019-05-28T05:59:55.221Z,16.70
2019-05-28T06:02:25.674Z,16.70
2019-05-28T06:04:56.133Z,16.80
2019-05-28T06:07:26.987Z,16.80
2019-05-28T06:09:57.436Z,16.80
2019-05-28T06:12:27.893Z,16.80
2019-05-28T06:14:58.288Z,16.80
2019-05-28T06:17:28.743Z,16.90
2019-05-28T06:19:59.138Z,16.80
2019-05-28T06:22:29.655Z,16.90
2019-05-28T06:25:01.025Z,16.90
2019-05-28T06:27:31.461Z,16.90
2019-05-28T06:30:01.852Z,17.00
2019-05-28T06:32:33.844Z,17.00
2019-05-28T06:35:05.764Z,17.00
2019-05-28T06:37:37.169Z,17.10
2019-05-28T06:40:09.461Z,17.00
2019-05-28T06:42:40.867Z,17.00
2019-05-28T06:45:11.709Z,17.00
2019-05-28T06:47:45.025Z,17.00
2019-05-28T06:50:14.866Z,16.90
2019-05-28T06:52:45.296Z,16.90
2019-05-28T06:55:15.918Z,16.90
2019-05-28T06:57:46.622Z,16.90
2019-05-28T07:00:18.888Z,16.90
2019-05-28T07:02:49.702Z,16.90
2019-05-28T07:05:20.319Z,16.90
2019-05-28T07:07:51.814Z,16.90
2019-05-28T07:10:22.679Z,16.80
2019-05-28T07:12:53.174Z,16.70
2019-05-28T07:15:24.530Z,16.70
2019-05-28T07:17:54.959Z,16.70
2019-05-28T07:20:25.366Z,16.80
2019-05-28T07:22:55.799Z,16.90
2019-05-28T07:25:26.177Z,17.00
2019-05-28T07:28:10.329Z,17.10
2019-05-28T07:30:28.696Z,17.00
2019-05-28T07:32:59.133Z,16.90
2019-05-28T07:35:44.714Z,16.80
2019-05-28T07:38:02.639Z,16.80
2019-05-28T07:40:33.019Z,16.80
2019-05-28T07:43:03.507Z,16.70
2019-05-28T07:45:33.937Z,16.70
2019-05-28T07:48:04.474Z,16.80
2019-05-28T07:50:34.980Z,16.70
2019-05-28T07:53:05.707Z,16.80
2019-05-28T07:55:37.122Z,16.80
2019-05-28T07:58:07.592Z,16.80
2019-05-28T08:00:41.066Z,16.90
2019-05-28T08:03:12.788Z,17.10
2019-05-28T08:05:43.194Z,17.20
2019-05-28T08:08:18.178Z,17.40
2019-05-28T08:10:49.243Z,17.40
2019-05-28T08:13:19.880Z,17.60
2019-05-28T08:15:50.266Z,17.80
2019-05-28T08:18:20.718Z,18.00
2019-05-28T08:20:51.109Z,18.00
2019-05-28T08:23:21.695Z,18.00
2019-05-28T08:25:52.084Z,18.20
2019-05-28T08:28:22.600Z,18.20
2019-05-28T08:30:52.996Z,18.20
2019-05-28T08:33:23.426Z,18.30
2019-05-28T08:35:54.781Z,18.50
2019-05-28T08:38:25.218Z,18.80
2019-05-28T08:40:55.607Z,18.90
2019-05-28T08:43:26.030Z,19.00
2019-05-28T08:45:56.464Z,19.10
2019-05-28T08:48:26.856Z,18.90
2019-05-28T08:50:57.293Z,18.90
2019-05-28T08:53:28.408Z,18.70
2019-05-28T08:55:59.023Z,18.70
2019-05-28T08:58:29.409Z,18.70
2019-05-28T09:00:59.854Z,18.70
2019-05-28T09:03:30.247Z,19.00
2019-05-28T09:06:00.682Z,19.30
2019-05-28T09:08:38.976Z,19.40
2019-05-28T09:11:03.386Z,19.50
2019-05-28T09:13:33.776Z,19.80
2019-05-28T09:16:04.292Z,19.70
2019-05-28T09:18:34.710Z,19.70
2019-05-28T09:21:05.352Z,19.60
2019-05-28T09:23:36.889Z,19.40
2019-05-28T09:26:07.384Z,19.20
2019-05-28T09:28:37.850Z,19.20
2019-05-28T09:34:18.965Z,18.80
2019-05-28T09:36:49.418Z,18.70
2019-05-28T09:39:19.934Z,18.50
2019-05-28T09:41:50.384Z,18.50
2019-05-28T09:44:20.791Z,18.50
2019-05-28T09:46:51.303Z,18.50
2019-05-28T09:49:21.748Z,18.40
2019-05-28T09:51:52.318Z,18.50
2019-05-28T09:54:22.719Z,18.60
2019-05-28T09:56:53.165Z,18.70
2019-05-28T09:59:23.702Z,18.80
2019-05-28T10:01:54.314Z,18.90
2019-05-28T10:04:43.625Z,18.90
2019-05-28T10:06:57.206Z,18.90
2019-05-28T10:09:27.689Z,18.90
2019-05-28T10:11:58.193Z,18.90
2019-05-28T10:14:28.584Z,18.90
2019-05-28T10:16:59.091Z,18.70
2019-05-28T10:19:29.480Z,18.70
2019-05-28T10:21:59.918Z,18.60
2019-05-28T10:24:30.311Z,18.50
2019-05-28T10:27:00.777Z,18.40
2019-05-28T10:29:32.327Z,18.30
2019-05-28T10:32:02.819Z,18.20
2019-05-28T10:34:33.260Z,18.00
2019-05-28T10:37:04.965Z,17.80
2019-05-28T10:39:35.431Z,17.70
2019-05-28T10:42:06.300Z,17.60
2019-05-28T10:44:36.778Z,17.50
2019-05-28T10:47:07.552Z,17.50
2019-05-28T10:49:38.134Z,17.60
2019-05-28T10:52:08.847Z,17.70
2019-05-28T10:54:39.238Z,17.80
2019-05-28T10:57:09.819Z,17.80
2019-05-28T10:59:40.215Z,17.80
2019-05-28T11:02:12.416Z,17.70
2019-05-28T11:04:44.544Z,17.70
2019-05-28T11:07:15.195Z,17.50
2019-05-28T11:09:46.132Z,17.30
2019-05-28T11:12:16.784Z,17.20
2019-05-28T11:14:47.188Z,17.20
2019-05-28T11:17:17.706Z,17.20
2019-05-28T11:19:50.806Z,17.30
2019-05-28T11:22:21.425Z,17.50
2019-05-28T11:24:52.792Z,17.60
2019-05-28T11:27:24.179Z,17.70
2019-05-28T11:29:55.709Z,17.50
2019-05-28T11:32:26.308Z,17.60
2019-05-28T11:34:56.701Z,17.50
2019-05-28T11:37:27.156Z,17.60
2019-05-28T11:40:05.179Z,17.50
2019-05-28T11:42:36.784Z,17.70
2019-05-28T11:45:13.309Z,17.80
2019-05-28T11:47:44.058Z,17.90
2019-05-28T11:50:14.700Z,18.10
2019-05-28T11:52:47.942Z,18.20
2019-05-28T11:55:20.384Z,18.30
2019-05-28T11:57:50.905Z,18.30
2019-05-28T12:00:23.224Z,18.40
2019-05-28T12:02:54.266Z,18.40
2019-05-28T12:05:24.937Z,18.30
2019-05-28T12:07:57.232Z,18.40
2019-05-28T12:10:46.063Z,18.60
2019-05-28T12:13:16.638Z,18.80
2019-05-28T12:15:47.408Z,19.00
2019-05-28T12:18:18.375Z,19.20
2019-05-28T12:20:49.011Z,19.40
2019-05-28T12:23:19.598Z,19.70
2019-05-28T12:25:51.669Z,19.80
2019-05-28T12:28:36.897Z,19.80
2019-05-28T12:30:55.826Z,19.70
2019-05-28T12:33:26.278Z,19.40
2019-05-28T12:35:56.815Z,19.20
2019-05-28T12:38:27.421Z,19.20
2019-05-28T12:40:58.041Z,19.10
2019-05-28T12:43:28.621Z,19.20
2019-05-28T12:45:59.081Z,19.30
2019-05-28T12:48:29.813Z,19.40
2019-05-28T12:51:02.422Z,19.50
2019-05-28T12:53:49.210Z,19.40
2019-05-28T12:56:08.713Z,19.40
2019-05-28T12:58:42.908Z,19.30
2019-05-28T13:01:11.658Z,19.20
2019-05-28T13:03:42.706Z,19.10
2019-05-28T13:06:13.339Z,19.00
2019-05-28T13:08:46.450Z,19.00
2019-05-28T13:11:17.027Z,19.00
2019-05-28T13:13:47.516Z,18.90
2019-05-28T13:16:19.775Z,18.90
2019-05-28T13:18:50.244Z,18.90
2019-05-28T13:21:20.648Z,18.90
2019-05-28T13:23:51.591Z,18.90
2019-05-28T13:26:23.949Z,19.00
2019-05-28T13:28:56.152Z,19.10
2019-05-28T13:31:26.590Z,19.10
2019-05-28T13:34:01.560Z,19.20
2019-05-28T13:36:31.986Z,19.20
2019-05-28T13:39:04.745Z,19.10
2019-05-28T13:41:36.601Z,19.00
2019-05-28T13:44:08.081Z,18.80
2019-05-28T13:46:39.893Z,18.60
2019-05-28T13:49:14.938Z,18.40
2019-05-28T13:51:48.395Z,18.30
2019-05-28T13:54:18.970Z,18.10
2019-05-28T13:56:50.670Z,18.00
2019-05-28T13:59:22.103Z,17.90
2019-05-28T14:01:54.249Z,17.90
2019-05-28T14:04:24.821Z,17.80
2019-05-28T14:06:59.159Z,17.90
2019-05-28T14:09:30.186Z,18.00
2019-05-28T14:12:01.899Z,18.10
2019-05-28T14:14:34.446Z,18.10
2019-05-28T14:17:05.871Z,18.00
2019-05-28T14:19:37.284Z,17.90
2019-05-28T14:22:08.176Z,17.90
2019-05-28T14:24:38.930Z,17.90
2019-05-28T14:27:10.994Z,17.90
2019-05-28T14:29:42.897Z,17.90
2019-05-28T14:32:15.022Z,17.80
2019-05-28T14:34:45.714Z,17.70
2019-05-28T14:37:16.215Z,17.70
2019-05-28T14:39:46.786Z,17.50
2019-05-28T14:42:20.159Z,17.50
2019-05-28T14:44:50.842Z,17.40
2019-05-28T14:47:22.962Z,17.30
2019-05-28T14:49:54.016Z,17.40
2019-05-28T14:52:24.762Z,17.40
2019-05-28T14:54:56.648Z,17.30
2019-05-28T14:57:27.193Z,17.30
2019-05-28T14:59:57.775Z,17.20
2019-05-28T15:02:29.320Z,17.20
2019-05-28T15:05:01.378Z,17.20
2019-05-28T15:07:33.047Z,17.10
2019-05-28T15:10:15.381Z,17.00
2019-05-28T15:12:46.107Z,16.90
2019-05-28T15:15:34.036Z,16.80
2019-05-28T15:17:49.632Z,16.80
2019-05-28T15:20:22.090Z,16.80
2019-05-28T15:22:52.628Z,16.70
2019-05-28T15:25:23.330Z,16.70
2019-05-28T15:27:53.818Z,16.70
2019-05-28T15:30:24.524Z,16.70
2019-05-28T15:32:55.011Z,16.60
2019-05-28T15:35:25.465Z,16.60
2019-05-28T15:37:55.932Z,16.50
2019-05-28T15:40:26.428Z,16.50
2019-05-28T15:43:05.473Z,16.40
2019-05-28T15:45:29.260Z,16.40
2019-05-28T15:47:59.746Z,16.40
2019-05-28T15:50:30.326Z,16.30
2019-05-28T15:53:01.953Z,16.30
2019-05-28T15:55:32.536Z,16.20
2019-05-28T15:58:03.073Z,16.20
2019-05-28T16:00:33.651Z,16.10
2019-05-28T16:03:04.278Z,16.00
2019-05-28T16:05:34.801Z,15.90
2019-05-28T16:08:05.916Z,15.80
2019-05-28T16:10:36.605Z,15.60
2019-05-28T16:13:06.995Z,15.60
2019-05-28T16:15:37.451Z,15.50
2019-05-28T16:18:08.081Z,15.30
2019-05-28T16:20:38.571Z,15.20
2019-05-28T16:23:09.047Z,15.10
2019-05-28T16:25:41.612Z,15.10
2019-05-28T16:28:11.700Z,15.00
2019-05-28T16:30:42.240Z,15.00
2019-05-28T16:33:12.641Z,14.90
2019-05-28T16:35:43.091Z,14.90
2019-05-28T16:38:13.553Z,14.90
2019-05-28T16:40:44.382Z,14.80
2019-05-28T16:43:14.988Z,14.70
2019-05-28T16:45:45.434Z,14.70
2019-05-28T16:48:15.924Z,14.60
2019-05-28T16:50:46.650Z,14.60
2019-05-28T16:53:17.197Z,14.50
2019-05-28T16:55:47.666Z,14.50
2019-05-28T16:58:18.204Z,14.40
2019-05-28T17:00:48.825Z,14.30
2019-05-28T17:03:19.403Z,14.30
2019-05-28T17:05:49.902Z,14.30
2019-05-28T17:08:20.345Z,14.20
2019-05-28T17:10:50.880Z,14.20
2019-05-28T17:13:23.209Z,14.20
2019-05-28T17:15:53.610Z,14.10
2019-05-28T17:18:24.057Z,14.00
2019-05-28T17:20:54.535Z,14.00
2019-05-28T17:23:25.047Z,14.00
2019-05-28T17:25:55.449Z,13.90
2019-05-28T17:28:25.886Z,13.90
2019-05-28T17:30:56.360Z,13.90
2019-05-28T17:33:26.812Z,13.80
2019-05-28T17:35:57.793Z,13.70
2019-05-28T17:38:29.862Z,13.70
2019-05-28T17:41:00.342Z,13.60
2019-05-28T17:43:30.782Z,13.50
2019-05-28T17:46:01.199Z,13.50
2019-05-28T17:48:31.728Z,13.50
2019-05-28T17:51:02.129Z,13.40
2019-05-28T17:53:32.593Z,13.40
2019-05-28T17:56:03.152Z,13.40
2019-05-28T17:58:33.678Z,13.30
2019-05-28T18:01:04.060Z,13.30
2019-05-28T18:03:35.341Z,13.30
2019-05-28T18:06:06.055Z,13.30
2019-05-28T18:08:36.506Z,13.30
2019-05-28T18:11:06.904Z,13.20
2019-05-28T18:13:37.401Z,13.20
2019-05-28T18:16:07.851Z,13.20
2019-05-28T18:18:38.361Z,13.10
2019-05-28T18:21:08.756Z,13.10
2019-05-28T18:23:40.332Z,13.10
2019-05-28T18:26:10.751Z,13.10
2019-05-28T18:28:41.435Z,13.10
2019-05-28T18:31:11.833Z,13.10
2019-05-28T18:33:42.302Z,13.00
2019-05-28T18:36:13.018Z,13.00
2019-05-28T18:38:43.897Z,13.00
2019-05-28T18:41:21.551Z,13.00
2019-05-28T18:43:47.609Z,12.90
2019-05-28T18:46:19.624Z,12.90
2019-05-28T18:48:50.072Z,12.90
2019-05-28T18:51:20.520Z,12.90
2019-05-28T18:53:51.370Z,12.90
2019-05-28T18:56:21.865Z,12.90
2019-05-28T18:58:53.854Z,12.90
2019-05-28T19:01:24.936Z,12.80
2019-05-28T19:03:56.346Z,12.80
2019-05-28T19:06:26.829Z,12.80
2019-05-28T19:08:57.346Z,12.80
2019-05-28T19:11:37.259Z,12.80
2019-05-28T19:14:01.018Z,12.80
2019-05-28T19:16:32.063Z,12.80
2019-05-28T19:19:02.531Z,12.80
2019-05-28T19:21:32.938Z,12.80
2019-05-28T19:24:03.429Z,12.80
2019-05-28T19:26:33.905Z,12.80
2019-05-28T19:29:04.485Z,12.80
2019-05-28T19:31:34.956Z,12.70
2019-05-28T19:34:05.923Z,12.70
2019-05-28T19:36:36.767Z,12.60
2019-05-28T19:39:08.195Z,12.60
2019-05-28T19:41:52.530Z,12.60
2019-05-28T19:44:11.314Z,12.70
2019-05-28T19:46:41.772Z,12.70
2019-05-28T19:49:12.297Z,12.70
2019-05-28T19:51:42.684Z,12.60
2019-05-28T19:54:13.154Z,12.60
2019-05-28T19:56:43.599Z,12.60
2019-05-28T19:59:14.104Z,12.60
2019-05-28T20:01:44.507Z,12.60
2019-05-28T20:04:15.112Z,12.60
2019-05-28T20:06:45.509Z,12.60
2019-05-28T20:09:15.978Z,12.50
2019-05-28T20:11:46.377Z,12.50
2019-05-28T20:14:16.907Z,12.50
2019-05-28T20:16:47.369Z,12.60
2019-05-28T20:19:17.817Z,12.60
2019-05-28T20:21:51.832Z,12.60
2019-05-28T20:24:20.418Z,12.60
2019-05-28T20:26:51.838Z,12.60
2019-05-28T20:29:22.413Z,12.60
2019-05-28T20:31:52.836Z,12.60
2019-05-28T20:34:23.400Z,12.60
2019-05-28T20:36:53.837Z,12.70
2019-05-28T20:39:24.757Z,12.60
2019-05-28T20:41:55.159Z,12.60
2019-05-28T20:44:25.617Z,12.70
2019-05-28T20:46:56.058Z,12.70
2019-05-28T20:49:26.509Z,12.70
2019-05-28T20:51:56.960Z,12.70
2019-05-28T20:54:27.406Z,12.70
2019-05-28T20:56:58.077Z,12.70
2019-05-28T20:59:28.704Z,12.70
2019-05-28T21:01:59.147Z,12.70
2019-05-28T21:04:29.551Z,12.70
2019-05-28T21:07:00.049Z,12.70
2019-05-28T21:09:30.501Z,12.70
2019-05-28T21:12:00.963Z,12.70
2019-05-28T21:14:31.690Z,12.60
2019-05-28T21:17:02.131Z,12.60
2019-05-28T21:19:32.539Z,12.70
2019-05-28T21:22:02.992Z,12.70
2019-05-28T21:24:33.392Z,12.60
2019-05-28T21:27:03.867Z,12.60
2019-05-28T21:29:34.273Z,12.60
2019-05-28T21:32:04.817Z,12.60
2019-05-28T21:34:35.320Z,12.60
2019-05-28T21:37:05.908Z,12.60
2019-05-28T21:39:36.381Z,12.60
2019-05-28T21:42:06.837Z,12.60
2019-05-28T21:44:37.242Z,12.60
2019-05-28T21:47:07.788Z,12.70
2019-05-28T21:49:38.378Z,12.70
2019-05-28T21:52:08.892Z,12.60
2019-05-28T21:54:39.333Z,12.70
2019-05-28T21:57:09.773Z,12.60
2019-05-28T21:59:40.172Z,12.60
2019-05-28T22:02:11.335Z,12.60
2019-05-28T22:04:42.228Z,12.50
2019-05-28T22:07:14.107Z,12.50
2019-05-28T22:09:44.566Z,12.50
2019-05-28T22:12:15.034Z,12.50
2019-05-28T22:14:45.695Z,12.40
2019-05-28T22:17:16.363Z,12.40
2019-05-28T22:19:46.817Z,12.40
2019-05-28T22:22:17.280Z,12.30
2019-05-28T22:24:47.831Z,12.30
2019-05-28T22:27:18.546Z,12.30
2019-05-28T22:29:49.221Z,12.30
2019-05-28T22:32:19.852Z,12.30
2019-05-28T22:34:50.256Z,12.30
2019-05-28T22:37:20.927Z,12.30
2019-05-28T22:39:51.353Z,12.30
2019-05-28T22:42:21.873Z,12.30
2019-05-28T22:44:53.444Z,12.30
2019-05-28T22:47:24.229Z,12.20
2019-05-28T22:49:54.635Z,12.30
2019-05-28T22:52:25.096Z,12.30
2019-05-28T22:54:55.663Z,12.30
2019-05-28T22:57:26.787Z,12.20
2019-05-28T22:59:58.277Z,12.20
2019-05-28T23:02:29.123Z,12.30
2019-05-28T23:04:59.515Z,12.30
2019-05-28T23:07:29.976Z,12.30
2019-05-28T23:10:01.528Z,12.30
2019-05-28T23:12:32.175Z,12.30
2019-05-28T23:15:02.581Z,12.30
2019-05-28T23:17:33.088Z,12.30
2019-05-28T23:20:05.159Z,12.30
2019-05-28T23:22:35.659Z,12.30
2019-05-28T23:25:11.744Z,12.30
2019-05-28T23:27:42.290Z,12.20
2019-05-28T23:30:23.291Z,12.20
2019-05-28T23:32:47.025Z,12.20
2019-05-28T23:35:17.803Z,12.20
2019-05-28T23:37:48.384Z,12.20
2019-05-28T23:40:19.021Z,12.10
2019-05-28T23:42:50.459Z,12.10
2019-05-28T23:45:21.058Z,12.10
2019-05-28T23:47:51.494Z,12.10
2019-05-28T23:50:21.956Z,12.10
2019-05-28T23:52:52.576Z,12.10
2019-05-28T23:55:23.114Z,12.20
2019-05-28T23:57:53.558Z,12.20
